sensor_id;sensor_type;location;lat;lon;timestamp;pressure;altitude;pressure_sealevel;temperature;humidity
71043;BME280;58696;52.134;5.500;2023-09-08T00:01:32;101715.22;;;18.31;88.25
71043;BME280;58696;52.134;5.500;2023-09-08T00:03:59;101710.00;;;18.31;88.23
71043;BME280;58696;52.134;5.500;2023-09-08T00:06:26;101708.22;;;18.32;87.91
71043;BME280;58696;52.134;5.500;2023-09-08T00:08:53;101709.22;;;18.31;87.99
71043;BME280;58696;52.134;5.500;2023-09-08T00:11:20;101702.66;;;18.28;87.63
71043;BME280;58696;52.134;5.500;2023-09-08T00:13:48;101699.25;;;18.28;87.64
71043;BME280;58696;52.134;5.500;2023-09-08T00:16:16;101700.84;;;18.29;87.52
71043;BME280;58696;52.134;5.500;2023-09-08T00:18:47;101701.47;;;18.24;87.83
71043;BME280;58696;52.134;5.500;2023-09-08T00:21:13;101700.69;;;18.24;87.77
71043;BME280;58696;52.134;5.500;2023-09-08T00:23:40;101701.09;;;18.21;87.79
71043;BME280;58696;52.134;5.500;2023-09-08T00:26:06;101707.53;;;18.18;87.72
71043;BME280;58696;52.134;5.500;2023-09-08T00:28:33;101707.75;;;18.17;87.45
71043;BME280;58696;52.134;5.500;2023-09-08T00:31:05;101707.75;;;18.10;87.71
71043;BME280;58696;52.134;5.500;2023-09-08T00:33:34;101701.81;;;18.03;87.99
71043;BME280;58696;52.134;5.500;2023-09-08T00:36:03;101715.06;;;17.95;88.09
71043;BME280;58696;52.134;5.500;2023-09-08T00:38:32;101707.50;;;17.86;88.43
71043;BME280;58696;52.134;5.500;2023-09-08T00:41:02;101702.94;;;17.82;88.87
71043;BME280;58696;52.134;5.500;2023-09-08T00:43:30;101698.16;;;17.79;88.84
71043;BME280;58696;52.134;5.500;2023-09-08T00:46:01;101702.56;;;17.78;89.11
71043;BME280;58696;52.134;5.500;2023-09-08T00:48:29;101709.19;;;17.74;88.84
71043;BME280;58696;52.134;5.500;2023-09-08T00:50:57;101710.56;;;17.70;89.06
71043;BME280;58696;52.134;5.500;2023-09-08T00:53:23;101708.78;;;17.64;89.34
71043;BME280;58696;52.134;5.500;2023-09-08T00:55:50;101704.38;;;17.65;89.29
71043;BME280;58696;52.134;5.500;2023-09-08T00:58:17;101707.75;;;17.72;89.24
71043;BME280;58696;52.134;5.500;2023-09-08T01:00:44;101701.97;;;17.76;89.03
71043;BME280;58696;52.134;5.500;2023-09-08T01:03:11;101708.75;;;17.77;89.18
71043;BME280;58696;52.134;5.500;2023-09-08T01:05:39;101702.34;;;17.80;88.70
71043;BME280;58696;52.134;5.500;2023-09-08T01:08:08;101706.16;;;17.77;89.79
71043;BME280;58696;52.134;5.500;2023-09-08T01:10:38;101705.56;;;17.75;90.16
71043;BME280;58696;52.134;5.500;2023-09-08T01:13:07;101697.78;;;17.69;89.88
71043;BME280;58696;52.134;5.500;2023-09-08T01:15:34;101696.81;;;17.63;90.06
71043;BME280;58696;52.134;5.500;2023-09-08T01:18:03;101695.84;;;17.57;90.61
71043;BME280;58696;52.134;5.500;2023-09-08T01:20:41;101696.84;;;17.56;90.91
71043;BME280;58696;52.134;5.500;2023-09-08T01:26:10;101699.63;;;17.55;90.25
71043;BME280;58696;52.134;5.500;2023-09-08T01:28:46;101693.47;;;17.49;90.09
71043;BME280;58696;52.134;5.500;2023-09-08T01:31:19;101698.06;;;17.47;90.32
71043;BME280;58696;52.134;5.500;2023-09-08T01:33:46;101700.50;;;17.42;90.63
71043;BME280;58696;52.134;5.500;2023-09-08T01:36:15;101698.09;;;17.41;90.38
71043;BME280;58696;52.134;5.500;2023-09-08T01:38:46;101696.13;;;17.36;90.32
71043;BME280;58696;52.134;5.500;2023-09-08T01:41:17;101698.72;;;17.36;90.17
71043;BME280;58696;52.134;5.500;2023-09-08T01:43:50;101696.53;;;17.33;90.39
71043;BME280;58696;52.134;5.500;2023-09-08T01:46:17;101696.16;;;17.29;90.38
71043;BME280;58696;52.134;5.500;2023-09-08T01:48:46;101696.34;;;17.28;90.21
71043;BME280;58696;52.134;5.500;2023-09-08T01:51:14;101694.16;;;17.25;90.44
71043;BME280;58696;52.134;5.500;2023-09-08T01:53:43;101691.75;;;17.23;90.68
71043;BME280;58696;52.134;5.500;2023-09-08T01:56:09;101693.97;;;17.20;91.30
71043;BME280;58696;52.134;5.500;2023-09-08T01:58:36;101698.56;;;17.18;91.29
71043;BME280;58696;52.134;5.500;2023-09-08T02:01:05;101686.00;;;17.15;91.55
71043;BME280;58696;52.134;5.500;2023-09-08T02:03:36;101692.38;;;17.12;91.94
71043;BME280;58696;52.134;5.500;2023-09-08T02:06:07;101700.38;;;17.11;91.98
71043;BME280;58696;52.134;5.500;2023-09-08T02:08:33;101704.38;;;17.06;92.24
71043;BME280;58696;52.134;5.500;2023-09-08T02:11:03;101690.22;;;17.02;92.03
71043;BME280;58696;52.134;5.500;2023-09-08T02:13:35;101696.63;;;17.00;92.52
71043;BME280;58696;52.134;5.500;2023-09-08T02:16:04;101701.22;;;16.98;92.42
71043;BME280;58696;52.134;5.500;2023-09-08T02:18:32;101687.63;;;16.96;92.73
71043;BME280;58696;52.134;5.500;2023-09-08T02:21:02;101694.03;;;16.93;92.39
71043;BME280;58696;52.134;5.500;2023-09-08T02:23:31;101691.81;;;16.90;92.63
71043;BME280;58696;52.134;5.500;2023-09-08T02:25:57;101695.06;;;16.86;92.72
71043;BME280;58696;52.134;5.500;2023-09-08T02:28:27;101700.63;;;16.82;92.71
71043;BME280;58696;52.134;5.500;2023-09-08T02:30:56;101687.47;;;16.77;93.06
71043;BME280;58696;52.134;5.500;2023-09-08T02:33:22;101685.88;;;16.70;91.73
71043;BME280;58696;52.134;5.500;2023-09-08T02:35:49;101688.84;;;16.60;91.01
71043;BME280;58696;52.134;5.500;2023-09-08T02:38:18;101689.25;;;16.50;91.13
71043;BME280;58696;52.134;5.500;2023-09-08T02:40:47;101684.88;;;16.44;91.43
71043;BME280;58696;52.134;5.500;2023-09-08T02:43:16;101684.47;;;16.41;91.89
71043;BME280;58696;52.134;5.500;2023-09-08T02:45:46;101687.84;;;16.41;92.99
71043;BME280;58696;52.134;5.500;2023-09-08T02:48:13;101678.88;;;16.44;93.10
71043;BME280;58696;52.134;5.500;2023-09-08T02:50:45;101684.06;;;16.44;93.40
71043;BME280;58696;52.134;5.500;2023-09-08T02:53:14;101690.66;;;16.46;93.69
71043;BME280;58696;52.134;5.500;2023-09-08T02:55:41;101684.06;;;16.44;93.66
71043;BME280;58696;52.134;5.500;2023-09-08T02:58:13;101689.84;;;16.39;93.58
71043;BME280;58696;52.134;5.500;2023-09-08T03:00:39;101691.06;;;16.37;94.03
71043;BME280;58696;52.134;5.500;2023-09-08T03:03:08;101690.25;;;16.36;93.80
71043;BME280;58696;52.134;5.500;2023-09-08T03:05:40;101694.84;;;16.34;94.29
71043;BME280;58696;52.134;5.500;2023-09-08T03:08:06;101690.66;;;16.33;94.23
71043;BME280;58696;52.134;5.500;2023-09-08T03:10:33;101695.84;;;16.33;94.38
71043;BME280;58696;52.134;5.500;2023-09-08T03:13:04;101699.22;;;16.34;94.15
71043;BME280;58696;52.134;5.500;2023-09-08T03:15:31;101697.44;;;16.27;94.15
71043;BME280;58696;52.134;5.500;2023-09-08T03:18:03;101697.81;;;16.24;94.33
71043;BME280;58696;52.134;5.500;2023-09-08T03:20:34;101692.63;;;16.24;94.17
71043;BME280;58696;52.134;5.500;2023-09-08T03:23:03;101692.44;;;16.26;94.00
71043;BME280;58696;52.134;5.500;2023-09-08T03:25:30;101692.63;;;16.24;93.89
71043;BME280;58696;52.134;5.500;2023-09-08T03:28:07;101684.47;;;16.21;93.72
71043;BME280;58696;52.134;5.500;2023-09-08T03:30:33;101680.88;;;16.15;93.78
71043;BME280;58696;52.134;5.500;2023-09-08T03:33:03;101681.47;;;16.11;94.40
71043;BME280;58696;52.134;5.500;2023-09-08T03:35:29;101685.06;;;16.10;94.29
71043;BME280;58696;52.134;5.500;2023-09-08T03:37:58;101679.25;;;16.08;94.36
71043;BME280;58696;52.134;5.500;2023-09-08T03:40:27;101670.47;;;16.09;94.66
71043;BME280;58696;52.134;5.500;2023-09-08T03:42:54;101667.88;;;16.09;94.37
71043;BME280;58696;52.134;5.500;2023-09-08T03:45:26;101679.88;;;16.10;94.43
71043;BME280;58696;52.134;5.500;2023-09-08T03:47:53;101674.69;;;16.10;94.78
71043;BME280;58696;52.134;5.500;2023-09-08T03:50:19;101673.06;;;16.02;95.02
71043;BME280;58696;52.134;5.500;2023-09-08T03:52:48;101671.47;;;15.94;95.54
71043;BME280;58696;52.134;5.500;2023-09-08T03:55:15;101665.66;;;15.92;95.66
71043;BME280;58696;52.134;5.500;2023-09-08T03:57:41;101670.25;;;15.90;96.08
71043;BME280;58696;52.134;5.500;2023-09-08T04:00:13;101663.47;;;15.89;96.23
71043;BME280;58696;52.134;5.500;2023-09-08T04:02:45;101668.66;;;15.89;96.03
71043;BME280;58696;52.134;5.500;2023-09-08T04:05:15;101670.25;;;15.90;95.76
71043;BME280;58696;52.134;5.500;2023-09-08T04:07:45;101660.66;;;15.91;95.55
71043;BME280;58696;52.134;5.500;2023-09-08T04:10:12;101664.06;;;15.91;95.39
71043;BME280;58696;52.134;5.500;2023-09-08T04:12:44;101661.88;;;15.88;95.51
71043;BME280;58696;52.134;5.500;2023-09-08T04:15:13;101655.06;;;15.87;95.22
71043;BME280;58696;52.134;5.500;2023-09-08T04:17:43;101665.84;;;15.84;95.04
71043;BME280;58696;52.134;5.500;2023-09-08T04:20:15;101664.25;;;15.83;95.33
71043;BME280;58696;52.134;5.500;2023-09-08T04:22:41;101661.66;;;15.83;95.13
71043;BME280;58696;52.134;5.500;2023-09-08T04:25:11;101658.06;;;15.84;95.00
71043;BME280;58696;52.134;5.500;2023-09-08T04:27:38;101660.25;;;15.87;95.00
71043;BME280;58696;52.134;5.500;2023-09-08T04:30:07;101661.09;;;15.88;95.23
71043;BME280;58696;52.134;5.500;2023-09-08T04:32:34;101661.88;;;15.88;95.58
71043;BME280;58696;52.134;5.500;2023-09-08T04:35:01;101663.84;;;15.86;95.73
71043;BME280;58696;52.134;5.500;2023-09-08T04:37:32;101665.84;;;15.84;95.81
71043;BME280;58696;52.134;5.500;2023-09-08T04:40:03;101656.66;;;15.82;95.71
71043;BME280;58696;52.134;5.500;2023-09-08T04:42:31;101652.09;;;15.77;95.66
71043;BME280;58696;52.134;5.500;2023-09-08T04:44:58;101661.25;;;15.73;95.86
71043;BME280;58696;52.134;5.500;2023-09-08T04:47:28;101670.97;;;15.71;95.86
71043;BME280;58696;52.134;5.500;2023-09-08T04:49:55;101661.63;;;15.70;96.02
71043;BME280;58696;52.134;5.500;2023-09-08T04:52:24;101664.41;;;15.68;96.08
71043;BME280;58696;52.134;5.500;2023-09-08T04:54:53;101658.00;;;15.64;96.35
71043;BME280;58696;52.134;5.500;2023-09-08T04:57:19;101664.00;;;15.65;96.44
71043;BME280;58696;52.134;5.500;2023-09-08T04:59:49;101669.38;;;15.63;96.50
71043;BME280;58696;52.134;5.500;2023-09-08T05:02:16;101662.41;;;15.64;96.78
71043;BME280;58696;52.134;5.500;2023-09-08T05:04:46;101667.56;;;15.64;96.94
71043;BME280;58696;52.134;5.500;2023-09-08T05:07:13;101672.56;;;15.65;96.98
71043;BME280;58696;52.134;5.500;2023-09-08T05:09:45;101662.81;;;15.67;96.80
71043;BME280;58696;52.134;5.500;2023-09-08T05:12:15;101667.59;;;15.70;97.35
71043;BME280;58696;52.134;5.500;2023-09-08T05:14:44;101672.63;;;15.78;97.74
71043;BME280;58696;52.134;5.500;2023-09-08T05:17:12;101660.47;;;15.86;97.48
71043;BME280;58696;52.134;5.500;2023-09-08T05:19:40;101663.84;;;15.93;97.21
71043;BME280;58696;52.134;5.500;2023-09-08T05:22:07;101671.47;;;15.94;97.13
71043;BME280;58696;52.134;5.500;2023-09-08T05:24:36;101664.47;;;15.95;97.01
71043;BME280;58696;52.134;5.500;2023-09-08T05:27:03;101668.88;;;15.94;97.36
71043;BME280;58696;52.134;5.500;2023-09-08T05:29:34;101665.88;;;15.97;97.19
71043;BME280;58696;52.134;5.500;2023-09-08T05:32:00;101665.69;;;15.99;97.34
71043;BME280;58696;52.134;5.500;2023-09-08T05:34:27;101667.88;;;16.02;97.02
71043;BME280;58696;52.134;5.500;2023-09-08T05:36:53;101671.47;;;16.08;97.12
71043;BME280;58696;52.134;5.500;2023-09-08T05:39:22;101678.44;;;16.14;96.69
71043;BME280;58696;52.134;5.500;2023-09-08T05:41:49;101679.66;;;16.18;96.57
71043;BME280;58696;52.134;5.500;2023-09-08T05:44:18;101675.88;;;16.20;97.19
71043;BME280;58696;52.134;5.500;2023-09-08T05:46:44;101675.09;;;16.26;96.76
71043;BME280;58696;52.134;5.500;2023-09-08T05:49:11;101679.06;;;16.29;96.87
71043;BME280;58696;52.134;5.500;2023-09-08T05:51:39;101677.09;;;16.31;96.85
71043;BME280;58696;52.134;5.500;2023-09-08T05:54:08;101685.25;;;16.41;97.18
71043;BME280;58696;52.134;5.500;2023-09-08T05:56:37;101686.66;;;16.64;96.60
71043;BME280;58696;52.134;5.500;2023-09-08T05:59:04;101691.59;;;17.12;95.25
71043;BME280;58696;52.134;5.500;2023-09-08T06:01:32;101694.47;;;17.48;93.46
71043;BME280;58696;52.134;5.500;2023-09-08T06:03:59;101701.13;;;17.82;92.41
71043;BME280;58696;52.134;5.500;2023-09-08T06:06:26;101699.94;;;18.42;90.55
71043;BME280;58696;52.134;5.500;2023-09-08T06:08:55;101699.59;;;18.31;89.36
71043;BME280;58696;52.134;5.500;2023-09-08T06:11:22;101694.84;;;18.28;90.46
71043;BME280;58696;52.134;5.500;2023-09-08T06:13:50;101698.75;;;18.37;89.81
71043;BME280;58696;52.134;5.500;2023-09-08T06:16:18;101700.25;;;18.27;89.77
71043;BME280;58696;52.134;5.500;2023-09-08T06:18:50;101698.75;;;18.12;91.03
71043;BME280;58696;52.134;5.500;2023-09-08T06:21:19;101699.00;;;18.04;91.31
71043;BME280;58696;52.134;5.500;2023-09-08T06:23:47;101693.63;;;17.99;91.32
71043;BME280;58696;52.134;5.500;2023-09-08T06:26:16;101694.63;;;17.98;92.18
71043;BME280;58696;52.134;5.500;2023-09-08T06:28:42;101697.03;;;18.00;92.96
71043;BME280;58696;52.134;5.500;2023-09-08T06:31:10;101697.78;;;18.07;92.52
71043;BME280;58696;52.134;5.500;2023-09-08T06:33:39;101698.19;;;18.10;92.92
71043;BME280;58696;52.134;5.500;2023-09-08T06:36:06;101695.88;;;18.21;93.24
71043;BME280;58696;52.134;5.500;2023-09-08T06:38:33;101697.66;;;18.27;93.63
71043;BME280;58696;52.134;5.500;2023-09-08T06:41:09;101694.41;;;18.31;93.45
71043;BME280;58696;52.134;5.500;2023-09-08T06:43:37;101697.16;;;18.36;93.60
71043;BME280;58696;52.134;5.500;2023-09-08T06:46:04;101703.13;;;18.44;94.33
71043;BME280;58696;52.134;5.500;2023-09-08T06:48:36;101713.50;;;18.50;94.44
71043;BME280;58696;52.134;5.500;2023-09-08T06:51:03;101704.41;;;18.59;94.88
71043;BME280;58696;52.134;5.500;2023-09-08T06:53:30;101710.94;;;18.69;94.84
71043;BME280;58696;52.134;5.500;2023-09-08T06:55:57;101706.28;;;18.77;95.00
71043;BME280;58696;52.134;5.500;2023-09-08T06:58:31;101715.19;;;18.88;95.01
71043;BME280;58696;52.134;5.500;2023-09-08T07:00:57;101714.69;;;18.98;94.73
71043;BME280;58696;52.134;5.500;2023-09-08T07:03:24;101708.97;;;19.07;94.53
71043;BME280;58696;52.134;5.500;2023-09-08T07:05:53;101712.09;;;19.16;93.58
71043;BME280;58696;52.134;5.500;2023-09-08T07:08:22;101717.22;;;19.23;92.74
71043;BME280;58696;52.134;5.500;2023-09-08T07:10:52;101717.50;;;19.33;92.77
71043;BME280;58696;52.134;5.500;2023-09-08T07:13:23;101720.41;;;19.43;92.09
71043;BME280;58696;52.134;5.500;2023-09-08T07:15:49;101721.72;;;19.52;92.15
71043;BME280;58696;52.134;5.500;2023-09-08T07:18:19;101713.38;;;19.62;92.47
71043;BME280;58696;52.134;5.500;2023-09-08T07:20:49;101722.25;;;19.73;92.25
71043;BME280;58696;52.134;5.500;2023-09-08T07:23:16;101714.69;;;19.83;91.57
71043;BME280;58696;52.134;5.500;2023-09-08T07:25:49;101714.41;;;19.91;90.48
71043;BME280;58696;52.134;5.500;2023-09-08T07:28:18;101728.28;;;20.03;89.87
71043;BME280;58696;52.134;5.500;2023-09-08T07:30:49;101728.28;;;20.15;89.46
71043;BME280;58696;52.134;5.500;2023-09-08T07:33:20;101722.78;;;20.35;89.37
71043;BME280;58696;52.134;5.500;2023-09-08T07:35:49;101719.97;;;20.48;88.51
71043;BME280;58696;52.134;5.500;2023-09-08T07:38:15;101727.59;;;20.73;88.21
71043;BME280;58696;52.134;5.500;2023-09-08T07:40:42;101720.03;;;21.35;85.08
71043;BME280;58696;52.134;5.500;2023-09-08T07:43:09;101717.13;;;22.39;82.63
71043;BME280;58696;52.134;5.500;2023-09-08T07:45:42;101727.75;;;23.05;79.27
71043;BME280;58696;52.134;5.500;2023-09-08T07:48:08;101725.50;;;24.44;76.68
71043;BME280;58696;52.134;5.500;2023-09-08T07:50:37;101727.91;;;25.91;75.71
71043;BME280;58696;52.134;5.500;2023-09-08T07:53:09;101735.78;;;26.52;67.72
71043;BME280;58696;52.134;5.500;2023-09-08T07:55:38;101732.38;;;27.32;69.46
71043;BME280;58696;52.134;5.500;2023-09-08T07:58:08;101732.72;;;27.59;62.79
71043;BME280;58696;52.134;5.500;2023-09-08T08:00:37;101733.06;;;28.21;62.82
71043;BME280;58696;52.134;5.500;2023-09-08T08:03:09;101722.00;;;29.15;63.14
71043;BME280;58696;52.134;5.500;2023-09-08T08:05:45;101729.56;;;29.78;59.43
71043;BME280;58696;52.134;5.500;2023-09-08T08:08:12;101723.19;;;30.11;54.32
71043;BME280;58696;52.134;5.500;2023-09-08T08:10:41;101724.03;;;29.93;56.19
71043;BME280;58696;52.134;5.500;2023-09-08T08:13:10;101727.75;;;30.25;53.39
71043;BME280;58696;52.134;5.500;2023-09-08T08:15:43;101722.00;;;30.04;51.62
71043;BME280;58696;52.134;5.500;2023-09-08T08:18:12;101725.22;;;30.01;54.38
71043;BME280;58696;52.134;5.500;2023-09-08T08:20:45;101727.66;;;30.44;55.03
71043;BME280;58696;52.134;5.500;2023-09-08T08:23:14;101724.41;;;30.60;52.18
71043;BME280;58696;52.134;5.500;2023-09-08T08:25:44;101731.53;;;31.15;53.88
71043;BME280;58696;52.134;5.500;2023-09-08T08:28:12;101736.00;;;31.06;52.18
71043;BME280;58696;52.134;5.500;2023-09-08T08:30:44;101725.59;;;30.96;51.28
71043;BME280;58696;52.134;5.500;2023-09-08T08:33:14;101722.06;;;31.00;50.84
71043;BME280;58696;52.134;5.500;2023-09-08T08:35:41;101723.69;;;31.10;49.07
71043;BME280;58696;52.134;5.500;2023-09-08T08:38:09;101720.69;;;30.89;52.88
71043;BME280;58696;52.134;5.500;2023-09-08T08:40:38;101722.38;;;30.71;53.12
71043;BME280;58696;52.134;5.500;2023-09-08T08:43:05;101722.00;;;30.78;51.28
71043;BME280;58696;52.134;5.500;2023-09-08T08:45:37;101715.28;;;30.53;51.32
71043;BME280;58696;52.134;5.500;2023-09-08T08:48:07;101716.44;;;30.19;51.34
71043;BME280;58696;52.134;5.500;2023-09-08T08:50:35;101712.94;;;30.05;53.29
71043;BME280;58696;52.134;5.500;2023-09-08T08:53:04;101712.78;;;30.01;52.58
71043;BME280;58696;52.134;5.500;2023-09-08T08:55:33;101705.88;;;30.00;52.37
71043;BME280;58696;52.134;5.500;2023-09-08T08:58:04;101710.31;;;30.05;55.15
71043;BME280;58696;52.134;5.500;2023-09-08T09:00:35;101711.94;;;29.87;52.69
71043;BME280;58696;52.134;5.500;2023-09-08T09:03:07;101725.78;;;29.46;52.79
71043;BME280;58696;52.134;5.500;2023-09-08T09:05:42;101714.50;;;28.79;56.09
71043;BME280;58696;52.134;5.500;2023-09-08T09:08:17;101721.31;;;28.61;56.23
71043;BME280;58696;52.134;5.500;2023-09-08T09:10:51;101713.59;;;28.12;58.94
71043;BME280;58696;52.134;5.500;2023-09-08T09:13:19;101718.41;;;27.70;58.27
71043;BME280;58696;52.134;5.500;2023-09-08T09:15:53;101717.22;;;27.47;60.06
71043;BME280;58696;52.134;5.500;2023-09-08T09:18:27;101720.41;;;27.44;60.46
71043;BME280;58696;52.134;5.500;2023-09-08T09:21:01;101720.28;;;27.20;63.07
71043;BME280;58696;52.134;5.500;2023-09-08T09:23:32;101716.63;;;27.11;63.08
71043;BME280;58696;52.134;5.500;2023-09-08T09:26:00;101720.06;;;27.07;65.58
71043;BME280;58696;52.134;5.500;2023-09-08T09:28:30;101719.75;;;27.18;65.38
71043;BME280;58696;52.134;5.500;2023-09-08T09:31:00;101718.97;;;27.18;63.87
71043;BME280;58696;52.134;5.500;2023-09-08T09:33:31;101715.59;;;27.07;63.24
71043;BME280;58696;52.134;5.500;2023-09-08T09:35:58;101713.47;;;27.14;63.78
71043;BME280;58696;52.134;5.500;2023-09-08T09:38:26;101717.09;;;27.18;64.16
71043;BME280;58696;52.134;5.500;2023-09-08T09:40:52;101726.13;;;27.07;63.64
71043;BME280;58696;52.134;5.500;2023-09-08T09:43:24;101718.19;;;27.12;64.13
71043;BME280;58696;52.134;5.500;2023-09-08T09:45:53;101720.78;;;27.22;65.06
71043;BME280;58696;52.134;5.500;2023-09-08T09:48:21;101717.66;;;27.20;64.44
71043;BME280;58696;52.134;5.500;2023-09-08T09:50:51;101718.16;;;27.22;64.97
71043;BME280;58696;52.134;5.500;2023-09-08T09:53:18;101718.88;;;27.33;64.78
71043;BME280;58696;52.134;5.500;2023-09-08T09:55:45;101711.69;;;27.44;64.16
71043;BME280;58696;52.134;5.500;2023-09-08T09:58:17;101711.13;;;27.52;64.92
71043;BME280;58696;52.134;5.500;2023-09-08T10:00:45;101713.69;;;27.62;63.78
71043;BME280;58696;52.134;5.500;2023-09-08T10:03:17;101709.69;;;27.70;63.86
71043;BME280;58696;52.134;5.500;2023-09-08T10:05:47;101706.16;;;27.85;65.41
71043;BME280;58696;52.134;5.500;2023-09-08T10:08:15;101704.91;;;28.06;62.36
71043;BME280;58696;52.134;5.500;2023-09-08T10:10:47;101708.03;;;28.13;61.94
71043;BME280;58696;52.134;5.500;2023-09-08T10:13:23;101710.38;;;28.15;63.16
71043;BME280;58696;52.134;5.500;2023-09-08T10:15:57;101708.91;;;28.33;61.23
71043;BME280;58696;52.134;5.500;2023-09-08T10:18:31;101710.53;;;28.28;62.09
71043;BME280;58696;52.134;5.500;2023-09-08T10:21:03;101704.88;;;28.40;61.79
71043;BME280;58696;52.134;5.500;2023-09-08T10:23:40;101707.03;;;28.38;63.10
71043;BME280;58696;52.134;5.500;2023-09-08T10:26:11;101707.97;;;28.47;60.96
71043;BME280;58696;52.134;5.500;2023-09-08T10:28:43;101696.31;;;28.48;61.74
71043;BME280;58696;52.134;5.500;2023-09-08T10:31:15;101701.13;;;28.65;60.50
71043;BME280;58696;52.134;5.500;2023-09-08T10:33:42;101695.53;;;28.72;61.23
71043;BME280;58696;52.134;5.500;2023-09-08T10:36:09;101698.25;;;28.67;63.62
71043;BME280;58696;52.134;5.500;2023-09-08T10:38:42;101689.94;;;28.73;61.44
71043;BME280;58696;52.134;5.500;2023-09-08T10:43:56;101698.50;;;28.89;59.76
71043;BME280;58696;52.134;5.500;2023-09-08T10:46:27;101697.41;;;28.90;58.78
71043;BME280;58696;52.134;5.500;2023-09-08T10:48:55;101690.09;;;29.06;57.11
71043;BME280;58696;52.134;5.500;2023-09-08T10:51:26;101691.81;;;28.92;60.88
71043;BME280;58696;52.134;5.500;2023-09-08T10:53:53;101687.31;;;28.92;60.66
71043;BME280;58696;52.134;5.500;2023-09-08T10:56:28;101689.97;;;28.92;62.03
71043;BME280;58696;52.134;5.500;2023-09-08T10:58:55;101695.81;;;29.13;61.22
71043;BME280;58696;52.134;5.500;2023-09-08T11:01:23;101695.75;;;29.18;61.45
71043;BME280;58696;52.134;5.500;2023-09-08T11:03:54;101693.53;;;29.06;60.42
71043;BME280;58696;52.134;5.500;2023-09-08T11:06:29;101688.72;;;29.08;59.63
71043;BME280;58696;52.134;5.500;2023-09-08T11:09:08;101699.63;;;29.26;60.24
71043;BME280;58696;52.134;5.500;2023-09-08T11:11:38;101690.16;;;29.57;59.11
71043;BME280;58696;52.134;5.500;2023-09-08T11:14:05;101689.56;;;29.60;58.62
71043;BME280;58696;52.134;5.500;2023-09-08T11:16:35;101692.72;;;29.63;58.69
71043;BME280;58696;52.134;5.500;2023-09-08T11:19:04;101686.00;;;29.70;60.36
71043;BME280;58696;52.134;5.500;2023-09-08T11:21:34;101690.06;;;29.95;60.13
71043;BME280;58696;52.134;5.500;2023-09-08T11:24:02;101688.22;;;30.09;57.23
71043;BME280;58696;52.134;5.500;2023-09-08T11:26:39;101693.69;;;29.99;58.46
71043;BME280;58696;52.134;5.500;2023-09-08T11:29:09;101696.47;;;30.08;57.15
71043;BME280;58696;52.134;5.500;2023-09-08T11:31:39;101693.06;;;30.21;57.55
71043;BME280;58696;52.134;5.500;2023-09-08T11:34:13;101697.38;;;30.17;57.72
71043;BME280;58696;52.134;5.500;2023-09-08T11:36:44;101701.41;;;30.15;57.42
71043;BME280;58696;52.134;5.500;2023-09-08T11:39:14;101690.03;;;30.28;57.45
71043;BME280;58696;52.134;5.500;2023-09-08T11:41:40;101698.88;;;30.51;57.78
71043;BME280;58696;52.134;5.500;2023-09-08T11:44:07;101697.78;;;30.65;57.29
71043;BME280;58696;52.134;5.500;2023-09-08T11:46:34;101694.06;;;30.53;56.50
71043;BME280;58696;52.134;5.500;2023-09-08T11:49:00;101691.41;;;30.53;55.25
71043;BME280;58696;52.134;5.500;2023-09-08T11:51:27;101697.09;;;30.87;56.21
71043;BME280;58696;52.134;5.500;2023-09-08T11:53:57;101692.13;;;31.08;55.12
71043;BME280;58696;52.134;5.500;2023-09-08T11:56:24;101695.72;;;31.26;54.69
71043;BME280;58696;52.134;5.500;2023-09-08T11:58:51;101694.34;;;31.15;53.48
71043;BME280;58696;52.134;5.500;2023-09-08T12:01:19;101688.88;;;31.11;53.73
71043;BME280;58696;52.134;5.500;2023-09-08T12:03:55;101693.97;;;31.22;55.99
71043;BME280;58696;52.134;5.500;2023-09-08T12:06:30;101693.63;;;31.37;53.21
71043;BME280;58696;52.134;5.500;2023-09-08T12:09:05;101686.97;;;31.26;55.18
71043;BME280;58696;52.134;5.500;2023-09-08T12:11:34;101690.97;;;31.37;54.10
71043;BME280;58696;52.134;5.500;2023-09-08T12:14:10;101686.56;;;31.55;54.89
71043;BME280;58696;52.134;5.500;2023-09-08T12:16:44;101683.88;;;31.77;57.24
71043;BME280;58696;52.134;5.500;2023-09-08T12:19:29;101687.78;;;32.02;52.70
71043;BME280;58696;52.134;5.500;2023-09-08T12:22:03;101687.47;;;31.73;51.85
71043;BME280;58696;52.134;5.500;2023-09-08T12:24:49;101688.44;;;31.54;54.39
71043;BME280;58696;52.134;5.500;2023-09-08T12:27:19;101687.94;;;31.52;52.70
71043;BME280;58696;52.134;5.500;2023-09-08T12:29:58;101681.69;;;31.48;52.97
71043;BME280;58696;52.134;5.500;2023-09-08T12:32:29;101683.28;;;31.58;54.25
71043;BME280;58696;52.134;5.500;2023-09-08T12:34:57;101685.25;;;31.75;52.70
71043;BME280;58696;52.134;5.500;2023-09-08T12:37:34;101680.91;;;31.79;54.05
71043;BME280;58696;52.134;5.500;2023-09-08T12:40:08;101682.31;;;31.99;54.88
71043;BME280;58696;52.134;5.500;2023-09-08T12:42:37;101682.63;;;31.97;53.71
71043;BME280;58696;52.134;5.500;2023-09-08T12:45:18;101672.28;;;31.96;52.80
71043;BME280;58696;52.134;5.500;2023-09-08T12:47:44;101671.97;;;31.97;51.94
71043;BME280;58696;52.134;5.500;2023-09-08T12:50:18;101676.94;;;31.90;53.74
71043;BME280;58696;52.134;5.500;2023-09-08T12:52:44;101678.47;;;32.22;53.56
71043;BME280;58696;52.134;5.500;2023-09-08T12:55:13;101670.63;;;32.17;51.32
71043;BME280;58696;52.134;5.500;2023-09-08T12:57:42;101670.53;;;32.31;53.52
71043;BME280;58696;52.134;5.500;2023-09-08T13:00:16;101668.69;;;32.40;51.68
71043;BME280;58696;52.134;5.500;2023-09-08T13:02:46;101668.78;;;32.26;49.40
71043;BME280;58696;52.134;5.500;2023-09-08T13:05:15;101662.19;;;32.24;49.25
71043;BME280;58696;52.134;5.500;2023-09-08T13:07:41;101668.69;;;32.40;50.80